Flight Track Log - Related Links

Times and Time Zones

All times are in EDT time to prevent confusion due to time zone crossing. See the N589H flight status page for this flight to view local times or setup timezone preferences in your user account.

Time Position Orientation Groundspeed Altitude Reporting Facility
EDT Latitude Longitude Course Direction KTS MPH feet Rate Location/Type
Wed 10:07:01 AM 27.3833 -82.5500 164° South 134 154 400  Level Tampa TRACON
Wed 10:08:13 AM 27.3333 -82.5333 164° South 205 236 1,900 1,455 Climbing Tampa TRACON
Wed 10:09:13 AM 27.3000 -82.5667 222° Southwest 209 241 3,600 1,934 Climbing Tampa TRACON
Wed 10:10:14 AM 27.3500 -82.6167 318° Northwest 192 221 5,800 2,087 Climbing Tampa TRACON
Wed 10:11:08 AM 27.3833 -82.6500 318° Northwest 194 223 7,600 2,071 Climbing Tampa TRACON
Wed 10:12:07 AM 27.4333 -82.6833 329° Northwest 221 254 9,700 1,786 Climbing Tampa TRACON
Wed 10:13:56 AM 27.5264 -82.7106 345° North 215 247 12,600 1,714 Climbing Miami Center
Wed 10:14:55 AM 27.5883 -82.7275 346° North 220 253 14,500 2,017 Climbing Miami Center
Wed 10:15:55 AM 27.6503 -82.7403 350° North 220 253 16,600 1,750 Climbing Miami Center
Wed 10:16:55 AM 27.7167 -82.7531 350° North 225 259 18,000 700 Climbing Miami Center
Wed 10:17:55 AM 27.7931 -82.7686 350° North 248 285 18,000 603 Level Miami Center
Wed 10:20:14 AM 27.9831 -82.8172 347° North 284 327 20,000 995 Climbing Jacksonville Center
Wed 10:21:14 AM 28.0644 -82.8361 348° North 290 334 21,300 1,350 Climbing Jacksonville Center
Wed 10:22:14 AM 28.1394 -82.8503 351° North 290 334 22,700 1,350 Climbing Jacksonville Center
Wed 10:23:14 AM 28.2189 -82.8408 North 280 322 24,000 1,400 Climbing Jacksonville Center
Wed 10:24:14 AM 28.2961 -82.8314 North 274 315 25,500 1,000 Climbing Jacksonville Center
Wed 10:25:14 AM 28.3775 -82.8194 North 280 322 26,000 800 Climbing Jacksonville Center
Wed 10:26:14 AM 28.4608 -82.8075 North 292 336 27,100 1,150 Climbing Jacksonville Center
Wed 10:27:14 AM 28.5400 -82.8006 North 292 336 28,300 1,200 Climbing Jacksonville Center
Wed 10:28:14 AM 28.6172 -82.7886 North 287 330 29,500 850 Climbing Jacksonville Center
Wed 10:29:14 AM 28.6778 -82.7836 North 277 319 30,000 250 Climbing Jacksonville Center
Wed 10:30:14 AM 28.7697 -82.7694 North 283 326 30,000  Level Jacksonville Center
Wed 10:31:14 AM 28.8572 -82.7597 North 296 341 30,000  Level Jacksonville Center
Wed 10:32:14 AM 28.9492 -82.7478 North 316 364 30,000  Level Jacksonville Center
Wed 10:33:14 AM 29.0431 -82.7358 North 321 369 30,000  Level Jacksonville Center
Wed 10:34:14 AM 29.1350 -82.7239 North 331 381 30,000  Level Jacksonville Center
Wed 10:35:14 AM 29.2289 -82.7117 North 331 381 30,000  Level Jacksonville Center
Wed 10:36:14 AM 29.3269 -82.6997 North 331 381 30,000  Level Jacksonville Center
Wed 10:37:14 AM 29.4208 -82.6900 North 331 381 30,000 150 Level Jacksonville Center
Wed 10:38:14 AM 29.5169 -82.6778 North 336 387 30,300 500 Climbing Jacksonville Center
Wed 10:39:14 AM 29.6128 -82.6681 North 341 392 31,000 350 Climbing Jacksonville Center
Wed 10:40:14 AM 29.7131 -82.6533 North 328 377 31,000  Level Jacksonville Center
Wed 10:41:14 AM 29.8069 -82.6436 North 333 383 31,000  Level Jacksonville Center
Wed 10:42:14 AM 29.8906 -82.6292 North 333 383 31,000  Level Jacksonville Center
Wed 10:43:14 AM 29.9864 -82.6167 North 338 389 31,000  Level Jacksonville Center
Wed 10:44:14 AM 30.0928 -82.6069 North 338 389 31,000  Level Jacksonville Center
Wed 10:45:14 AM 30.1911 -82.5922 North 344 396 31,000  Level Jacksonville Center
Wed 10:46:14 AM 30.2869 -82.5822 North 349 402 31,000  Level Jacksonville Center
Wed 10:47:14 AM 30.3850 -82.5700 North 349 402 31,000  Level Jacksonville Center
Wed 10:48:14 AM 30.4811 -82.5575 North 349 402 31,000  Level Jacksonville Center
Wed 10:49:14 AM 30.5772 -82.5475 North 349 402 31,000  Level Jacksonville Center
Wed 10:50:14 AM 30.6753 -82.5375 North 349 402 31,000  Level Jacksonville Center
Wed 10:51:14 AM 30.7756 -82.5300 North 349 402 31,000  Level Jacksonville Center
Wed 10:52:14 AM 30.8714 -82.5197 North 349 402 31,000  Level Jacksonville Center
Wed 10:53:14 AM 30.9675 -82.5097 North 349 402 31,000  Level Jacksonville Center
Wed 10:54:14 AM 31.0656 -82.5044 North 349 402 31,000  Level Jacksonville Center
Wed 10:55:14 AM 31.1617 -82.4944 North 349 402 31,000  Level Jacksonville Center
Wed 10:56:14 AM 31.2597 -82.4819 North 349 402 31,000  Level Jacksonville Center
Wed 10:57:14 AM 31.3578 -82.4742 North 349 402 31,000  Level Jacksonville Center
Wed 10:58:14 AM 31.4475 -82.4617 North 349 402 31,000  Level Jacksonville Center
Wed 10:59:14 AM 31.5478 -82.4539 North 349 402 31,000  Level Jacksonville Center
Wed 11:00:58 AM 31.7236 -82.4372 North 357 411 31,000  Level Atlanta Center
Wed 11:01:58 AM 31.8236 -82.4281 North 357 411 31,000  Level Atlanta Center
Wed 11:02:58 AM 31.9239 -82.4189 North 357 411 31,000  Level Atlanta Center
Wed 11:03:58 AM 32.0217 -82.4097 North 352 405 31,000  Level Atlanta Center
Wed 11:04:58 AM 32.1197 -82.3983 North 352 405 31,000  Level Atlanta Center
Wed 11:05:58 AM 32.2219 -82.3914 North 347 399 31,000  Level Atlanta Center
Wed 11:06:58 AM 32.3094 -82.3725 10° North 347 399 31,000  Level Atlanta Center
Wed 11:07:58 AM 32.4072 -82.3683 North 347 399 31,000  Level Atlanta Center
Wed 11:08:58 AM 32.5075 -82.3589 North 352 405 31,000  Level Atlanta Center
Wed 11:09:58 AM 32.6075 -82.3472 North 352 405 31,000  Level Atlanta Center
Wed 11:10:58 AM 32.7075 -82.3406 North 352 405 31,000  Level Atlanta Center
Wed 11:11:58 AM 32.8075 -82.3311 North 352 405 31,000  Level Atlanta Center
Wed 11:12:58 AM 32.9056 -82.3192 North 352 405 31,000  Level Atlanta Center
Wed 11:13:58 AM 33.0078 -82.3072 North 352 405 31,000  Level Atlanta Center
Wed 11:14:58 AM 33.1056 -82.3006 North 352 405 31,000  Level Atlanta Center
Wed 11:15:58 AM 33.2078 -82.2886 North 357 411 31,000  Level Atlanta Center
Wed 11:16:58 AM 33.3078 -82.2789 North 357 411 31,000  Level Atlanta Center
Wed 11:17:58 AM 33.4078 -82.2694 North 357 411 31,000  Level Atlanta Center
Wed 11:18:58 AM 33.5078 -82.2575 North 357 411 31,000  Level Atlanta Center
Wed 11:19:58 AM 33.6206 -82.2453 North 366 421 31,000  Level Atlanta Center
Wed 11:20:58 AM 33.7225 -82.2331 North 366 421 31,000  Level Atlanta Center
Wed 11:21:58 AM 33.8247 -82.2233 North 366 421 31,000  Level Atlanta Center
Wed 11:22:58 AM 33.9247 -82.2136 North 366 421 31,000  Level Atlanta Center
Wed 11:23:58 AM 34.0269 -82.2067 North 366 421 31,000  Level Atlanta Center
Wed 11:24:58 AM 34.1289 -82.1944 North 366 421 31,000  Level Atlanta Center
Wed 11:25:58 AM 34.2311 -82.1844 North 366 421 31,000  Level Atlanta Center
Wed 11:26:58 AM 34.3311 -82.1722 North 366 421 31,000  Level Atlanta Center
Wed 11:27:58 AM 34.4331 -82.1625 North 366 421 31,000  Level Atlanta Center
Wed 11:28:58 AM 34.5375 -82.1525 North 366 421 31,000  Level Atlanta Center
Wed 11:29:58 AM 34.6292 -82.1431 North 366 421 31,000  Level Atlanta Center
Wed 11:30:58 AM 34.7311 -82.1306 North 366 421 31,000  Level Atlanta Center
Wed 11:31:58 AM 34.8333 -82.1231 North 366 421 31,000  Level Atlanta Center
Wed 11:32:58 AM 34.9417 -82.1156 North 366 421 31,000  Level Atlanta Center
Wed 11:33:58 AM 35.0417 -82.1006 North 366 421 31,000  Level Atlanta Center
Wed 11:34:58 AM 35.1436 -82.0906 North 366 421 31,000  Level Atlanta Center
Wed 11:35:58 AM 35.2458 -82.0806 North 366 421 31,000  Level Atlanta Center
Wed 11:36:58 AM 35.3478 -82.0681 North 366 421 31,000  Level Atlanta Center
Wed 11:37:58 AM 35.4497 -82.0578 North 366 421 31,000  Level Atlanta Center
Wed 11:38:58 AM 35.5519 -82.0478 North 366 421 31,000  Level Atlanta Center
Wed 11:39:58 AM 35.6539 -82.0350 North 366 421 31,000  Level Atlanta Center
Wed 11:40:58 AM 35.7497 -82.0250 North 366 421 31,000  Level Atlanta Center
Wed 11:41:58 AM 35.8558 -82.0122 North 366 421 31,000  Level Atlanta Center
Wed 11:42:58 AM 35.9558 -81.9994 North 366 421 31,000  Level Atlanta Center
Wed 11:43:58 AM 36.0558 -81.9892 North 366 421 31,000  Level Atlanta Center
Wed 11:44:58 AM 36.1578 -81.9789 North 366 421 31,000  Level Atlanta Center
Wed 11:45:58 AM 36.2619 -81.9683 North 371 427 31,000  Level Atlanta Center
Wed 11:46:58 AM 36.3639 -81.9581 North 366 421 31,000  Level Atlanta Center
Wed 11:47:00 AM 36.3582 -81.9599 North  Level FlightAware Approximate
Wed 11:47:58 AM 36.4658 -81.9425 North 366 421 31,000  Level Atlanta Center
Wed 11:48:58 AM 36.5700 -81.9319 North 366 421 31,000  Level Atlanta Center
Wed 11:50:57 AM 36.7831 -81.9097 North 375 432 31,000  Level Indianapolis Center
Wed 11:51:58 AM 36.8875 -81.8981 North 376 433 31,000  Level Indianapolis Center
Wed 11:53:00 AM 36.9908 -81.8864 North 375 432 31,000  Level Indianapolis Center
Wed 11:54:02 AM 37.1133 -81.8742 North 376 433 31,000  Level Indianapolis Center
Wed 11:55:03 AM 37.2194 -81.8622 North 380 437 31,000  Level Indianapolis Center
Wed 11:56:05 AM 37.3256 -81.8500 North 381 438 31,000  Level Indianapolis Center
Wed 11:57:06 AM 37.4322 -81.8394 North 381 438 31,000  Level Indianapolis Center
Wed 11:58:08 AM 37.5353 -81.8239 North 380 437 31,000  Level Indianapolis Center
Wed 11:59:10 AM 37.6406 -81.8131 North 379 436 31,000  Level Indianapolis Center
Wed 12:00:11 PM 37.7450 -81.8008 North 379 436 31,000  Level Indianapolis Center
Wed 12:01:13 PM 37.8583 -81.7894 North 380 437 31,000  Level Indianapolis Center
Wed 12:02:15 PM 37.9628 -81.7778 North 380 437 31,000  Level Indianapolis Center
Wed 12:03:16 PM 38.0686 -81.7650 North 380 437 31,000  Level Indianapolis Center
Wed 12:04:18 PM 38.1756 -81.7533 North 380 437 31,000  Level Indianapolis Center
Wed 12:05:19 PM 38.3044 -81.7381 North 383 441 31,000  Level Indianapolis Center
Wed 12:06:21 PM 38.4106 -81.7258 North 383 441 31,000  Level Indianapolis Center
Wed 12:07:22 PM 38.5167 -81.7128 North 383 441 31,000  Level Indianapolis Center
Wed 12:08:24 PM 38.6233 -81.7003 North 382 440 31,000  Level Indianapolis Center
Wed 12:09:25 PM 38.7314 -81.6878 North 382 440 31,000  Level Indianapolis Center
Wed 12:10:27 PM 38.8392 -81.6744 North 382 440 31,000  Level Indianapolis Center
Wed 12:11:28 PM 38.9469 -81.6622 North 382 440 31,000  Level Indianapolis Center
Wed 12:12:30 PM 39.0539 -81.6503 North 383 441 31,000  Level Indianapolis Center
Wed 12:13:31 PM 39.1611 -81.6375 North 383 441 31,000  Level Indianapolis Center
Wed 12:14:33 PM 39.2675 -81.6256 North 383 441 31,000  Level Indianapolis Center
Wed 12:15:34 PM 39.3744 -81.6128 North 383 441 31,000  Level Indianapolis Center
Wed 12:16:35 PM 39.4825 -81.5997 North 385 443 31,000  Level Indianapolis Center
Wed 12:17:37 PM 39.5900 -81.5864 North 386 444 31,000  Level Indianapolis Center
Wed 12:18:38 PM 39.7072 -81.5733 North 388 447 31,000  Level Indianapolis Center
Wed 12:19:40 PM 39.8156 -81.5608 North 389 448 31,000  Level Indianapolis Center
Wed 12:20:41 PM 39.9264 -81.5464 North 395 455 31,000  Level Indianapolis Center
Wed 12:21:43 PM 40.0511 -81.5311 North 403 464 31,000  Level Indianapolis Center
Wed 12:22:44 PM 40.1631 -81.5181 North 404 465 31,000  Level Indianapolis Center
Wed 12:23:46 PM 40.2758 -81.5053 North 404 465 31,000  Level Indianapolis Center
Wed 12:24:47 PM 40.3894 -81.4911 North 404 465 31,000  Level Indianapolis Center
Wed 12:25:48 PM 40.5006 -81.4781 North 403 464 31,000  Level Indianapolis Center
Wed 12:26:50 PM 40.6119 -81.4619 North 401 461 31,000  Level Indianapolis Center
Wed 12:27:51 PM 40.7425 -81.4475 North 401 461 31,000  Level Indianapolis Center
Wed 12:28:53 PM 40.8547 -81.4336 North 401 461 31,000  Level Indianapolis Center
Wed 12:29:54 PM 40.9664 -81.4056 11° North 405 466 31,000  Level Indianapolis Center
Wed 12:30:56 PM 41.0792 -81.3658 15° North 415 478 31,000  Level Indianapolis Center
Wed 12:31:58 PM 41.1881 -81.3536 North 400 460 31,000  Level Indianapolis Center
Wed 12:32:59 PM 41.2972 -81.3456 North 395 455 31,000 -367 Level Indianapolis Center
Wed 12:34:25 PM 41.4622 -81.3264 North 398 458 30,100 -1,184 Descending Cleveland Center
Wed 12:35:26 PM 41.5775 -81.3133 North 411 473 28,100 -1,951 Descending Cleveland Center
Wed 12:36:28 PM 41.6919 -81.3022 North 411 473 26,100 -1,839 Descending Cleveland Center
Wed 12:37:30 PM 41.8092 -81.2886 North 418 481 24,300 -1,016 Descending Cleveland Center
Wed 12:38:32 PM 41.9242 -81.2772 North 414 476 24,000 -145 Descending Cleveland Center
Wed 12:39:34 PM 42.0378 -81.2647 North 408 470 24,000 -1,210 Level Cleveland Center
Wed 12:40:36 PM 42.1725 -81.2497 North 414 476 21,500 -2,274 Descending Cleveland Center
Wed 12:41:38 PM 42.2881 -81.2358 North 414 476 19,300 -2,098 Descending Cleveland Center
Wed 12:42:39 PM 42.3944 -81.2261 North 384 442 17,200 -2,098 Descending Cleveland Center
Wed 12:43:41 PM 42.4936 -81.2136 North 359 413 15,000 -2,032 Descending Cleveland Center
Wed 12:44:43 PM 42.5878 -81.2025 North 344 396 13,000 -1,935 Descending Cleveland Center
Wed 12:45:45 PM 42.6744 -81.2064 358° North 313 360 11,000 -1,953 Descending Cleveland Center
Wed 12:47:35 PM 42.8000 -81.2500 346° North 270 311 7,400 -1,906 Descending Toronto Center
Wed 12:48:35 PM 42.8667 -81.3000 331° Northwest 270 311 5,600 -1,450 Descending Toronto Center
Wed 12:49:35 PM 42.9333 -81.3167 350° North 260 299 4,500 -800 Descending Toronto Center
Wed 12:50:35 PM 43.0000 -81.3500 340° North 250 288 4,000 -600 Descending Toronto Center
Wed 12:51:35 PM 43.0833 -81.3500 360° North 250 288 3,300 -500 Descending Toronto Center
Wed 12:52:35 PM 43.1333 -81.3500 360° North 230 265 3,000 -150 Descending Toronto Center
Wed 12:53:35 PM 43.1500 -81.2833 71° East 220 253 3,000  Level Toronto Center
Wed 12:54:35 PM 43.1000 -81.2333 144° Southeast 170 196 3,000 -300 Level Toronto Center
Wed 12:55:35 PM 43.0833 -81.2000 124° Southeast 140 161 2,400 -650 Descending Toronto Center
Wed 12:56:35 PM 43.0500 -81.1833 160° South 110 127 1,700 -650 Descending Toronto Center
Wed 12:57:35 PM 43.0333 -81.1667 144° Southeast 120 138 1,100 -400 Descending Toronto Center
Wed 12:58:35 PM 43.0167 -81.1333 124° Southeast 50 58 900 -200 Descending Toronto Center

Login

Don't have an account? Register now (free) for customized features, flight alerts, and more!